sensor_id;sensor_type;location;lat;lon;timestamp;P1;durP1;ratioP1;P2;durP2;ratioP2
36185;SDS011;22228;53.222;7.446;2023-05-07T00:02:16;27.33;;;24.00;;
36185;SDS011;22228;53.222;7.446;2023-05-07T00:04:37;29.90;;;24.50;;
36185;SDS011;22228;53.222;7.446;2023-05-07T00:06:58;28.87;;;24.43;;
36185;SDS011;22228;53.222;7.446;2023-05-07T00:09:21;27.77;;;24.87;;
36185;SDS011;22228;53.222;7.446;2023-05-07T00:11:42;28.60;;;25.00;;
36185;SDS011;22228;53.222;7.446;2023-05-07T00:14:03;27.10;;;24.27;;
36185;SDS011;22228;53.222;7.446;2023-05-07T03:01:46;26.30;;;23.70;;
36185;SDS011;22228;53.222;7.446;2023-05-07T03:04:32;28.63;;;25.17;;
36185;SDS011;22228;53.222;7.446;2023-05-07T03:06:56;26.93;;;24.03;;
36185;SDS011;22228;53.222;7.446;2023-05-07T03:09:24;28.20;;;24.37;;
36185;SDS011;22228;53.222;7.446;2023-05-07T03:11:45;27.30;;;24.37;;
36185;SDS011;22228;53.222;7.446;2023-05-07T03:14:06;27.03;;;24.20;;
36185;SDS011;22228;53.222;7.446;2023-05-07T03:17:14;27.67;;;24.73;;
36185;SDS011;22228;53.222;7.446;2023-05-07T03:22:29;25.37;;;22.77;;
36185;SDS011;22228;53.222;7.446;2023-05-07T03:24:50;27.30;;;23.87;;
36185;SDS011;22228;53.222;7.446;2023-05-07T03:27:41;29.23;;;24.97;;
36185;SDS011;22228;53.222;7.446;2023-05-07T03:30:03;27.43;;;24.43;;
36185;SDS011;22228;53.222;7.446;2023-05-07T03:32:27;26.47;;;23.67;;
36185;SDS011;22228;53.222;7.446;2023-05-07T03:34:49;27.30;;;24.50;;
36185;SDS011;22228;53.222;7.446;2023-05-07T03:37:10;26.67;;;23.87;;
36185;SDS011;22228;53.222;7.446;2023-05-07T03:39:31;28.23;;;25.33;;
36185;SDS011;22228;53.222;7.446;2023-05-07T03:41:52;28.47;;;25.47;;
36185;SDS011;22228;53.222;7.446;2023-05-07T03:44:13;27.87;;;24.97;;
36185;SDS011;22228;53.222;7.446;2023-05-07T03:46:35;28.37;;;25.27;;
36185;SDS011;22228;53.222;7.446;2023-05-07T03:49:12;28.63;;;25.63;;
36185;SDS011;22228;53.222;7.446;2023-05-07T03:51:43;28.10;;;25.20;;
36185;SDS011;22228;53.222;7.446;2023-05-07T03:54:07;27.17;;;24.40;;
36185;SDS011;22228;53.222;7.446;2023-05-07T03:56:28;28.00;;;24.70;;
36185;SDS011;22228;53.222;7.446;2023-05-07T03:59:21;26.73;;;24.07;;
36185;SDS011;22228;53.222;7.446;2023-05-07T04:01:43;27.63;;;24.07;;
36185;SDS011;22228;53.222;7.446;2023-05-07T04:04:09;27.03;;;24.23;;
36185;SDS011;22228;53.222;7.446;2023-05-07T04:06:31;28.47;;;24.23;;
36185;SDS011;22228;53.222;7.446;2023-05-07T04:08:53;26.13;;;23.33;;
36185;SDS011;22228;53.222;7.446;2023-05-07T04:11:14;28.73;;;25.33;;
36185;SDS011;22228;53.222;7.446;2023-05-07T04:13:35;26.07;;;23.33;;
36185;SDS011;22228;53.222;7.446;2023-05-07T04:16:21;25.13;;;22.00;;
36185;SDS011;22228;53.222;7.446;2023-05-07T04:18:44;25.07;;;22.27;;
36185;SDS011;22228;53.222;7.446;2023-05-07T04:23:58;22.67;;;20.27;;
36185;SDS011;22228;53.222;7.446;2023-05-07T04:26:45;22.97;;;20.53;;
36185;SDS011;22228;53.222;7.446;2023-05-07T04:29:07;22.73;;;20.43;;
36185;SDS011;22228;53.222;7.446;2023-05-07T04:31:28;25.80;;;23.17;;
36185;SDS011;22228;53.222;7.446;2023-05-07T04:33:55;25.20;;;21.40;;
36185;SDS011;22228;53.222;7.446;2023-05-07T04:36:44;24.90;;;22.10;;
36185;SDS011;22228;53.222;7.446;2023-05-07T04:39:06;25.40;;;22.70;;
36185;SDS011;22228;53.222;7.446;2023-05-07T04:41:32;24.30;;;21.77;;
36185;SDS011;22228;53.222;7.446;2023-05-07T04:43:55;24.53;;;21.93;;
36185;SDS011;22228;53.222;7.446;2023-05-07T04:46:18;25.63;;;21.87;;
36185;SDS011;22228;53.222;7.446;2023-05-07T04:48:41;24.90;;;22.27;;
36185;SDS011;22228;53.222;7.446;2023-05-07T04:51:02;25.67;;;22.97;;
36185;SDS011;22228;53.222;7.446;2023-05-07T04:53:25;25.83;;;23.10;;
36185;SDS011;22228;53.222;7.446;2023-05-07T04:55:48;25.50;;;22.87;;
36185;SDS011;22228;53.222;7.446;2023-05-07T04:58:16;28.20;;;22.80;;
36185;SDS011;22228;53.222;7.446;2023-05-07T05:00:40;23.57;;;21.00;;
36185;SDS011;22228;53.222;7.446;2023-05-07T05:05:50;23.23;;;20.73;;
36185;SDS011;22228;53.222;7.446;2023-05-07T05:08:12;23.67;;;21.27;;
36185;SDS011;22228;53.222;7.446;2023-05-07T05:10:43;21.97;;;19.67;;
36185;SDS011;22228;53.222;7.446;2023-05-07T05:15:57;21.63;;;19.33;;
36185;SDS011;22228;53.222;7.446;2023-05-07T05:18:23;22.60;;;20.13;;
36185;SDS011;22228;53.222;7.446;2023-05-07T05:20:46;22.03;;;19.67;;
36185;SDS011;22228;53.222;7.446;2023-05-07T05:23:08;24.57;;;20.93;;
36185;SDS011;22228;53.222;7.446;2023-05-07T05:25:30;22.37;;;19.80;;
36185;SDS011;22228;53.222;7.446;2023-05-07T05:31:10;26.67;;;20.93;;
36185;SDS011;22228;53.222;7.446;2023-05-07T05:33:30;22.50;;;20.00;;
36185;SDS011;22228;53.222;7.446;2023-05-07T05:35:57;22.30;;;19.67;;
36185;SDS011;22228;53.222;7.446;2023-05-07T05:38:20;21.90;;;18.87;;
36185;SDS011;22228;53.222;7.446;2023-05-07T05:40:41;21.13;;;18.83;;
36185;SDS011;22228;53.222;7.446;2023-05-07T05:43:05;21.20;;;18.97;;
36185;SDS011;22228;53.222;7.446;2023-05-07T05:45:29;22.87;;;20.23;;
36185;SDS011;22228;53.222;7.446;2023-05-07T05:47:51;22.87;;;19.17;;
36185;SDS011;22228;53.222;7.446;2023-05-07T05:50:13;20.63;;;18.50;;
36185;SDS011;22228;53.222;7.446;2023-05-07T05:52:37;21.83;;;19.13;;
36185;SDS011;22228;53.222;7.446;2023-05-07T05:55:01;20.97;;;18.80;;
36185;SDS011;22228;53.222;7.446;2023-05-07T05:57:21;22.30;;;19.27;;
36185;SDS011;22228;53.222;7.446;2023-05-07T05:59:43;22.10;;;19.00;;
36185;SDS011;22228;53.222;7.446;2023-05-07T06:02:08;22.17;;;19.83;;
36185;SDS011;22228;53.222;7.446;2023-05-07T06:04:38;21.50;;;19.20;;
36185;SDS011;22228;53.222;7.446;2023-05-07T06:07:02;22.70;;;20.00;;
36185;SDS011;22228;53.222;7.446;2023-05-07T06:09:24;22.93;;;18.70;;
36185;SDS011;22228;53.222;7.446;2023-05-07T06:12:09;19.70;;;17.60;;
36185;SDS011;22228;53.222;7.446;2023-05-07T06:14:42;22.80;;;19.93;;
36185;SDS011;22228;53.222;7.446;2023-05-07T06:17:03;21.53;;;19.27;;
36185;SDS011;22228;53.222;7.446;2023-05-07T06:19:25;20.80;;;18.70;;
36185;SDS011;22228;53.222;7.446;2023-05-07T06:25:16;22.67;;;19.80;;
36185;SDS011;22228;53.222;7.446;2023-05-07T06:27:37;21.77;;;19.07;;
36185;SDS011;22228;53.222;7.446;2023-05-07T06:29:59;21.13;;;18.93;;
36185;SDS011;22228;53.222;7.446;2023-05-07T06:32:23;22.20;;;19.07;;
36185;SDS011;22228;53.222;7.446;2023-05-07T06:34:45;23.30;;;19.83;;
36185;SDS011;22228;53.222;7.446;2023-05-07T06:37:11;21.70;;;19.27;;
36185;SDS011;22228;53.222;7.446;2023-05-07T06:39:46;22.93;;;19.87;;
36185;SDS011;22228;53.222;7.446;2023-05-07T06:42:35;23.43;;;20.20;;
36185;SDS011;22228;53.222;7.446;2023-05-07T06:45:16;26.50;;;20.73;;
36185;SDS011;22228;53.222;7.446;2023-05-07T06:47:39;25.13;;;19.80;;
36185;SDS011;22228;53.222;7.446;2023-05-07T06:50:00;22.27;;;19.77;;
36185;SDS011;22228;53.222;7.446;2023-05-07T06:52:24;25.07;;;19.93;;
36185;SDS011;22228;53.222;7.446;2023-05-07T06:54:52;23.57;;;19.73;;
36185;SDS011;22228;53.222;7.446;2023-05-07T06:57:15;22.80;;;20.23;;
36185;SDS011;22228;53.222;7.446;2023-05-07T06:59:37;25.17;;;20.17;;
36185;SDS011;22228;53.222;7.446;2023-05-07T07:01:58;22.20;;;19.17;;
36185;SDS011;22228;53.222;7.446;2023-05-07T07:04:19;25.07;;;20.93;;
36185;SDS011;22228;53.222;7.446;2023-05-07T07:06:46;20.87;;;18.67;;
36185;SDS011;22228;53.222;7.446;2023-05-07T07:09:10;20.73;;;18.60;;
36185;SDS011;22228;53.222;7.446;2023-05-07T07:11:30;21.73;;;19.47;;
36185;SDS011;22228;53.222;7.446;2023-05-07T07:13:53;22.47;;;20.03;;
36185;SDS011;22228;53.222;7.446;2023-05-07T07:16:19;21.77;;;18.63;;
36185;SDS011;22228;53.222;7.446;2023-05-07T07:18:39;22.17;;;19.53;;
36185;SDS011;22228;53.222;7.446;2023-05-07T07:21:01;20.73;;;18.47;;
36185;SDS011;22228;53.222;7.446;2023-05-07T07:23:23;21.20;;;19.00;;
36185;SDS011;22228;53.222;7.446;2023-05-07T07:25:44;19.83;;;17.80;;
36185;SDS011;22228;53.222;7.446;2023-05-07T07:28:07;19.73;;;17.70;;
36185;SDS011;22228;53.222;7.446;2023-05-07T07:30:36;19.23;;;17.27;;
36185;SDS011;22228;53.222;7.446;2023-05-07T07:33:01;20.23;;;17.97;;
36185;SDS011;22228;53.222;7.446;2023-05-07T07:35:25;21.13;;;18.83;;
36185;SDS011;22228;53.222;7.446;2023-05-07T07:37:46;19.80;;;17.80;;
36185;SDS011;22228;53.222;7.446;2023-05-07T07:40:12;19.40;;;16.47;;
36185;SDS011;22228;53.222;7.446;2023-05-07T07:42:34;19.40;;;17.23;;
36185;SDS011;22228;53.222;7.446;2023-05-07T07:44:55;18.37;;;16.57;;
36185;SDS011;22228;53.222;7.446;2023-05-07T07:47:42;17.57;;;15.80;;
36185;SDS011;22228;53.222;7.446;2023-05-07T07:50:06;18.50;;;16.70;;
36185;SDS011;22228;53.222;7.446;2023-05-07T07:52:31;15.87;;;14.30;;
36185;SDS011;22228;53.222;7.446;2023-05-07T07:54:58;17.30;;;15.70;;
36185;SDS011;22228;53.222;7.446;2023-05-07T07:57:44;16.43;;;14.83;;
36185;SDS011;22228;53.222;7.446;2023-05-07T08:00:13;17.63;;;15.40;;
36185;SDS011;22228;53.222;7.446;2023-05-07T08:02:59;15.97;;;14.47;;
36185;SDS011;22228;53.222;7.446;2023-05-07T08:05:29;15.87;;;14.27;;
36185;SDS011;22228;53.222;7.446;2023-05-07T08:07:51;16.07;;;14.57;;
36185;SDS011;22228;53.222;7.446;2023-05-07T08:10:20;16.17;;;14.53;;
36185;SDS011;22228;53.222;7.446;2023-05-07T08:12:50;17.33;;;15.63;;
36185;SDS011;22228;53.222;7.446;2023-05-07T08:15:12;15.90;;;14.50;;
36185;SDS011;22228;53.222;7.446;2023-05-07T08:17:33;15.43;;;13.87;;
36185;SDS011;22228;53.222;7.446;2023-05-07T08:22:42;16.13;;;14.53;;
36185;SDS011;22228;53.222;7.446;2023-05-07T08:25:32;16.00;;;14.50;;
36185;SDS011;22228;53.222;7.446;2023-05-07T08:28:18;16.17;;;14.63;;
36185;SDS011;22228;53.222;7.446;2023-05-07T08:30:40;14.60;;;13.30;;
36185;SDS011;22228;53.222;7.446;2023-05-07T08:35:58;14.47;;;13.10;;
36185;SDS011;22228;53.222;7.446;2023-05-07T08:38:21;14.13;;;12.77;;
36185;SDS011;22228;53.222;7.446;2023-05-07T08:43:32;15.83;;;14.40;;
36185;SDS011;22228;53.222;7.446;2023-05-07T08:45:57;14.57;;;13.17;;
36185;SDS011;22228;53.222;7.446;2023-05-07T08:48:25;12.73;;;11.53;;
36185;SDS011;22228;53.222;7.446;2023-05-07T08:50:57;12.67;;;11.57;;
36185;SDS011;22228;53.222;7.446;2023-05-07T08:53:27;14.30;;;12.93;;
36185;SDS011;22228;53.222;7.446;2023-05-07T08:55:48;13.37;;;12.07;;
36185;SDS011;22228;53.222;7.446;2023-05-07T08:58:09;13.67;;;12.30;;
36185;SDS011;22228;53.222;7.446;2023-05-07T09:00:39;14.30;;;13.00;;
36185;SDS011;22228;53.222;7.446;2023-05-07T09:03:00;13.87;;;12.67;;
36185;SDS011;22228;53.222;7.446;2023-05-07T09:05:24;14.33;;;13.13;;
36185;SDS011;22228;53.222;7.446;2023-05-07T09:13:31;14.30;;;13.00;;
36185;SDS011;22228;53.222;7.446;2023-05-07T09:15:54;13.80;;;12.40;;
36185;SDS011;22228;53.222;7.446;2023-05-07T09:21:04;13.57;;;12.37;;
36185;SDS011;22228;53.222;7.446;2023-05-07T09:26:29;13.67;;;12.47;;
36185;SDS011;22228;53.222;7.446;2023-05-07T09:28:51;12.77;;;11.57;;
36185;SDS011;22228;53.222;7.446;2023-05-07T09:31:17;12.43;;;11.43;;
36185;SDS011;22228;53.222;7.446;2023-05-07T09:33:39;11.60;;;10.60;;
36185;SDS011;22228;53.222;7.446;2023-05-07T09:36:26;11.87;;;10.87;;
36185;SDS011;22228;53.222;7.446;2023-05-07T09:38:52;11.03;;;10.17;;
36185;SDS011;22228;53.222;7.446;2023-05-07T09:41:14;11.90;;;10.83;;
36185;SDS011;22228;53.222;7.446;2023-05-07T09:43:43;12.03;;;11.03;;
36185;SDS011;22228;53.222;7.446;2023-05-07T09:46:32;12.00;;;10.90;;
36185;SDS011;22228;53.222;7.446;2023-05-07T09:48:59;12.27;;;11.27;;
36185;SDS011;22228;53.222;7.446;2023-05-07T09:51:28;12.57;;;11.57;;
36185;SDS011;22228;53.222;7.446;2023-05-07T09:53:52;11.53;;;10.53;;
36185;SDS011;22228;53.222;7.446;2023-05-07T09:56:15;11.83;;;10.83;;
36185;SDS011;22228;53.222;7.446;2023-05-07T09:58:44;11.90;;;10.80;;
36185;SDS011;22228;53.222;7.446;2023-05-07T10:01:06;14.10;;;12.90;;
36185;SDS011;22228;53.222;7.446;2023-05-07T10:03:51;14.43;;;13.33;;
36185;SDS011;22228;53.222;7.446;2023-05-07T10:06:15;13.33;;;12.33;;
36185;SDS011;22228;53.222;7.446;2023-05-07T10:08:37;14.43;;;13.13;;
36185;SDS011;22228;53.222;7.446;2023-05-07T10:11:00;11.80;;;10.70;;
36185;SDS011;22228;53.222;7.446;2023-05-07T10:13:22;10.97;;;10.10;;
36185;SDS011;22228;53.222;7.446;2023-05-07T10:15:53;10.93;;;10.03;;
36185;SDS011;22228;53.222;7.446;2023-05-07T10:18:22;11.87;;;11.07;;
36185;SDS011;22228;53.222;7.446;2023-05-07T10:20:51;13.80;;;12.70;;
36185;SDS011;22228;53.222;7.446;2023-05-07T10:23:15;17.03;;;15.57;;
36185;SDS011;22228;53.222;7.446;2023-05-07T10:25:41;17.43;;;16.10;;
36185;SDS011;22228;53.222;7.446;2023-05-07T10:28:27;16.13;;;14.87;;
36185;SDS011;22228;53.222;7.446;2023-05-07T10:30:55;18.00;;;16.50;;
36185;SDS011;22228;53.222;7.446;2023-05-07T10:33:32;18.70;;;17.20;;
36185;SDS011;22228;53.222;7.446;2023-05-07T10:35:55;19.10;;;17.60;;
36185;SDS011;22228;53.222;7.446;2023-05-07T10:38:33;17.03;;;15.60;;
36185;SDS011;22228;53.222;7.446;2023-05-07T10:40:55;13.93;;;12.83;;
36185;SDS011;22228;53.222;7.446;2023-05-07T10:43:16;12.30;;;11.30;;
36185;SDS011;22228;53.222;7.446;2023-05-07T10:46:11;10.80;;;10.00;;
36185;SDS011;22228;53.222;7.446;2023-05-07T10:49:12;13.63;;;12.63;;
36185;SDS011;22228;53.222;7.446;2023-05-07T10:51:39;13.10;;;12.00;;
36185;SDS011;22228;53.222;7.446;2023-05-07T10:54:21;12.53;;;11.57;;
36185;SDS011;22228;53.222;7.446;2023-05-07T10:56:54;12.53;;;11.60;;
36185;SDS011;22228;53.222;7.446;2023-05-07T10:59:30;14.37;;;13.27;;
36185;SDS011;22228;53.222;7.446;2023-05-07T11:02:06;15.17;;;13.97;;
36185;SDS011;22228;53.222;7.446;2023-05-07T11:04:38;15.17;;;14.07;;
36185;SDS011;22228;53.222;7.446;2023-05-07T11:07:24;14.97;;;13.83;;
36185;SDS011;22228;53.222;7.446;2023-05-07T11:10:01;17.70;;;16.47;;
36185;SDS011;22228;53.222;7.446;2023-05-07T11:12:48;16.40;;;15.20;;
36185;SDS011;22228;53.222;7.446;2023-05-07T11:15:32;16.43;;;15.23;;
36185;SDS011;22228;53.222;7.446;2023-05-07T11:17:59;13.97;;;12.77;;
36185;SDS011;22228;53.222;7.446;2023-05-07T11:26:46;14.20;;;13.20;;
36185;SDS011;22228;53.222;7.446;2023-05-07T11:29:16;13.67;;;12.70;;
36185;SDS011;22228;53.222;7.446;2023-05-07T11:31:39;14.60;;;13.50;;
36185;SDS011;22228;53.222;7.446;2023-05-07T11:34:08;14.27;;;13.27;;
36185;SDS011;22228;53.222;7.446;2023-05-07T11:36:54;13.30;;;12.40;;
36185;SDS011;22228;53.222;7.446;2023-05-07T11:39:35;13.10;;;12.20;;
36185;SDS011;22228;53.222;7.446;2023-05-07T11:41:56;13.87;;;12.60;;
36185;SDS011;22228;53.222;7.446;2023-05-07T11:44:17;14.00;;;12.93;;
36185;SDS011;22228;53.222;7.446;2023-05-07T11:47:09;12.93;;;11.97;;
36185;SDS011;22228;53.222;7.446;2023-05-07T11:52:51;12.00;;;11.20;;
36185;SDS011;22228;53.222;7.446;2023-05-07T11:55:13;11.23;;;10.43;;
36185;SDS011;22228;53.222;7.446;2023-05-07T11:58:02;10.73;;;10.10;;
36185;SDS011;22228;53.222;7.446;2023-05-07T12:00:27;10.30;;;9.70;;
36185;SDS011;22228;53.222;7.446;2023-05-07T12:02:48;9.30;;;8.80;;
36185;SDS011;22228;53.222;7.446;2023-05-07T12:05:15;13.00;;;12.10;;
36185;SDS011;22228;53.222;7.446;2023-05-07T12:07:36;13.27;;;12.40;;
36185;SDS011;22228;53.222;7.446;2023-05-07T12:09:58;12.60;;;11.70;;
36185;SDS011;22228;53.222;7.446;2023-05-07T12:15:35;9.70;;;9.10;;
36185;SDS011;22228;53.222;7.446;2023-05-07T12:18:01;10.80;;;10.03;;
36185;SDS011;22228;53.222;7.446;2023-05-07T12:20:28;10.33;;;9.73;;
36185;SDS011;22228;53.222;7.446;2023-05-07T12:23:14;12.90;;;12.10;;
36185;SDS011;22228;53.222;7.446;2023-05-07T12:25:37;11.67;;;11.00;;
36185;SDS011;22228;53.222;7.446;2023-05-07T12:28:05;11.67;;;10.97;;
36185;SDS011;22228;53.222;7.446;2023-05-07T12:30:30;13.47;;;12.37;;
36185;SDS011;22228;53.222;7.446;2023-05-07T12:35:43;11.47;;;10.77;;
36185;SDS011;22228;53.222;7.446;2023-05-07T12:38:33;11.87;;;10.97;;
36185;SDS011;22228;53.222;7.446;2023-05-07T12:40:56;10.83;;;10.23;;
36185;SDS011;22228;53.222;7.446;2023-05-07T12:43:18;13.37;;;12.57;;
36185;SDS011;22228;53.222;7.446;2023-05-07T12:45:40;12.57;;;11.73;;
36185;SDS011;22228;53.222;7.446;2023-05-07T12:48:27;11.70;;;11.00;;
36185;SDS011;22228;53.222;7.446;2023-05-07T12:51:13;12.60;;;11.90;;
36185;SDS011;22228;53.222;7.446;2023-05-07T12:53:59;10.13;;;9.53;;
36185;SDS011;22228;53.222;7.446;2023-05-07T12:56:25;11.07;;;10.37;;
36185;SDS011;22228;53.222;7.446;2023-05-07T12:58:48;9.50;;;8.97;;
36185;SDS011;22228;53.222;7.446;2023-05-07T13:01:08;9.63;;;9.13;;
36185;SDS011;22228;53.222;7.446;2023-05-07T13:03:54;8.63;;;8.07;;
36185;SDS011;22228;53.222;7.446;2023-05-07T13:06:15;8.13;;;7.60;;
36185;SDS011;22228;53.222;7.446;2023-05-07T13:11:49;8.23;;;7.73;;
36185;SDS011;22228;53.222;7.446;2023-05-07T13:14:09;8.30;;;7.80;;
36185;SDS011;22228;53.222;7.446;2023-05-07T13:16:54;7.37;;;6.87;;
36185;SDS011;22228;53.222;7.446;2023-05-07T13:19:39;7.70;;;7.20;;
36185;SDS011;22228;53.222;7.446;2023-05-07T13:22:03;7.37;;;6.87;;
36185;SDS011;22228;53.222;7.446;2023-05-07T13:24:49;7.83;;;7.33;;
36185;SDS011;22228;53.222;7.446;2023-05-07T13:27:15;6.53;;;6.10;;
36185;SDS011;22228;53.222;7.446;2023-05-07T13:29:35;8.30;;;7.70;;
36185;SDS011;22228;53.222;7.446;2023-05-07T13:31:56;6.77;;;6.23;;
36185;SDS011;22228;53.222;7.446;2023-05-07T13:34:24;6.37;;;6.07;;
36185;SDS011;22228;53.222;7.446;2023-05-07T13:37:10;7.90;;;7.40;;
36185;SDS011;22228;53.222;7.446;2023-05-07T13:40:03;8.10;;;7.50;;
36185;SDS011;22228;53.222;7.446;2023-05-07T13:45:23;8.93;;;8.43;;
36185;SDS011;22228;53.222;7.446;2023-05-07T13:48:08;7.63;;;7.13;;
36185;SDS011;22228;53.222;7.446;2023-05-07T13:50:30;7.17;;;6.60;;
36185;SDS011;22228;53.222;7.446;2023-05-07T13:52:52;6.30;;;6.00;;
36185;SDS011;22228;53.222;7.446;2023-05-07T13:55:12;5.57;;;5.13;;
36185;SDS011;22228;53.222;7.446;2023-05-07T13:57:34;6.50;;;6.10;;
36185;SDS011;22228;53.222;7.446;2023-05-07T13:59:59;6.83;;;6.33;;
36185;SDS011;22228;53.222;7.446;2023-05-07T14:02:21;7.07;;;6.57;;
36185;SDS011;22228;53.222;7.446;2023-05-07T14:04:45;7.83;;;7.20;;
36185;SDS011;22228;53.222;7.446;2023-05-07T14:07:08;6.60;;;6.17;;
36185;SDS011;22228;53.222;7.446;2023-05-07T14:09:28;8.17;;;7.53;;
36185;SDS011;22228;53.222;7.446;2023-05-07T14:11:49;7.33;;;6.83;;
36185;SDS011;22228;53.222;7.446;2023-05-07T14:14:38;6.80;;;6.37;;
36185;SDS011;22228;53.222;7.446;2023-05-07T14:17:00;6.73;;;6.33;;
36185;SDS011;22228;53.222;7.446;2023-05-07T14:19:20;7.93;;;7.33;;
36185;SDS011;22228;53.222;7.446;2023-05-07T14:21:42;6.53;;;6.13;;
36185;SDS011;22228;53.222;7.446;2023-05-07T14:24:05;7.13;;;6.70;;
36185;SDS011;22228;53.222;7.446;2023-05-07T14:29:13;6.77;;;6.37;;
36185;SDS011;22228;53.222;7.446;2023-05-07T14:31:35;7.20;;;6.53;;
36185;SDS011;22228;53.222;7.446;2023-05-07T14:34:01;6.27;;;5.93;;
36185;SDS011;22228;53.222;7.446;2023-05-07T14:36:28;7.17;;;6.77;;
36185;SDS011;22228;53.222;7.446;2023-05-07T14:38:50;6.43;;;6.00;;
36185;SDS011;22228;53.222;7.446;2023-05-07T14:44:00;6.67;;;6.27;;
36185;SDS011;22228;53.222;7.446;2023-05-07T14:46:23;6.13;;;5.73;;
36185;SDS011;22228;53.222;7.446;2023-05-07T14:49:14;6.67;;;6.27;;
36185;SDS011;22228;53.222;7.446;2023-05-07T14:51:36;7.27;;;6.77;;
36185;SDS011;22228;53.222;7.446;2023-05-07T14:53:57;6.53;;;6.23;;
36185;SDS011;22228;53.222;7.446;2023-05-07T14:56:44;5.97;;;5.67;;
36185;SDS011;22228;53.222;7.446;2023-05-07T14:59:05;6.30;;;5.90;;
36185;SDS011;22228;53.222;7.446;2023-05-07T15:01:27;6.10;;;5.80;;
36185;SDS011;22228;53.222;7.446;2023-05-07T15:04:12;6.57;;;6.17;;
36185;SDS011;22228;53.222;7.446;2023-05-07T15:07:00;6.60;;;6.20;;
36185;SDS011;22228;53.222;7.446;2023-05-07T15:10:11;5.87;;;5.47;;
36185;SDS011;22228;53.222;7.446;2023-05-07T15:12:35;6.53;;;6.13;;
36185;SDS011;22228;53.222;7.446;2023-05-07T15:14:55;6.03;;;5.63;;
36185;SDS011;22228;53.222;7.446;2023-05-07T15:17:18;4.90;;;4.50;;
36185;SDS011;22228;53.222;7.446;2023-05-07T15:19:41;5.37;;;5.07;;
36185;SDS011;22228;53.222;7.446;2023-05-07T15:22:01;6.90;;;6.30;;
36185;SDS011;22228;53.222;7.446;2023-05-07T15:24:22;5.90;;;5.50;;
36185;SDS011;22228;53.222;7.446;2023-05-07T15:26:45;6.13;;;5.77;;
36185;SDS011;22228;53.222;7.446;2023-05-07T15:29:11;7.70;;;6.30;;
36185;SDS011;22228;53.222;7.446;2023-05-07T15:31:34;5.80;;;5.40;;
36185;SDS011;22228;53.222;7.446;2023-05-07T15:33:56;5.27;;;4.87;;
36185;SDS011;22228;53.222;7.446;2023-05-07T15:36:18;6.30;;;5.90;;
36185;SDS011;22228;53.222;7.446;2023-05-07T15:39:10;6.07;;;5.63;;
36185;SDS011;22228;53.222;7.446;2023-05-07T15:41:31;6.17;;;5.77;;
36185;SDS011;22228;53.222;7.446;2023-05-07T15:49:55;6.50;;;6.10;;
36185;SDS011;22228;53.222;7.446;2023-05-07T15:55:08;5.80;;;5.50;;
36185;SDS011;22228;53.222;7.446;2023-05-07T15:57:31;6.73;;;6.27;;
36185;SDS011;22228;53.222;7.446;2023-05-07T16:00:20;6.60;;;6.00;;
36185;SDS011;22228;53.222;7.446;2023-05-07T16:05:53;6.17;;;5.83;;
36185;SDS011;22228;53.222;7.446;2023-05-07T16:08:24;6.93;;;6.53;;
36185;SDS011;22228;53.222;7.446;2023-05-07T16:10:46;6.33;;;6.03;;
36185;SDS011;22228;53.222;7.446;2023-05-07T16:16:26;6.50;;;6.00;;
36185;SDS011;22228;53.222;7.446;2023-05-07T16:18:48;6.97;;;6.43;;
36185;SDS011;22228;53.222;7.446;2023-05-07T16:21:11;7.37;;;6.77;;
36185;SDS011;22228;53.222;7.446;2023-05-07T16:23:35;7.60;;;7.00;;
36185;SDS011;22228;53.222;7.446;2023-05-07T16:25:55;6.93;;;6.33;;
36185;SDS011;22228;53.222;7.446;2023-05-07T16:28:17;6.87;;;6.47;;
36185;SDS011;22228;53.222;7.446;2023-05-07T16:30:46;6.20;;;5.90;;
36185;SDS011;22228;53.222;7.446;2023-05-07T16:33:06;6.60;;;6.20;;
36185;SDS011;22228;53.222;7.446;2023-05-07T16:35:51;7.63;;;6.93;;
36185;SDS011;22228;53.222;7.446;2023-05-07T16:38:16;6.83;;;6.33;;
36185;SDS011;22228;53.222;7.446;2023-05-07T16:40:45;6.57;;;6.17;;
36185;SDS011;22228;53.222;7.446;2023-05-07T16:43:14;6.40;;;6.00;;
36185;SDS011;22228;53.222;7.446;2023-05-07T16:45:36;6.57;;;6.17;;
36185;SDS011;22228;53.222;7.446;2023-05-07T16:48:01;6.17;;;5.87;;
36185;SDS011;22228;53.222;7.446;2023-05-07T16:50:52;7.17;;;6.77;;
36185;SDS011;22228;53.222;7.446;2023-05-07T16:53:18;6.43;;;6.03;;
36185;SDS011;22228;53.222;7.446;2023-05-07T16:55:40;6.33;;;5.93;;
36185;SDS011;22228;53.222;7.446;2023-05-07T16:58:03;6.30;;;5.83;;
36185;SDS011;22228;53.222;7.446;2023-05-07T17:00:48;6.40;;;6.00;;
36185;SDS011;22228;53.222;7.446;2023-05-07T17:03:09;6.40;;;5.90;;
36185;SDS011;22228;53.222;7.446;2023-05-07T17:05:30;6.97;;;6.57;;
36185;SDS011;22228;53.222;7.446;2023-05-07T17:07:51;6.87;;;6.47;;
36185;SDS011;22228;53.222;7.446;2023-05-07T17:10:14;6.67;;;6.17;;
36185;SDS011;22228;53.222;7.446;2023-05-07T17:12:34;6.87;;;6.47;;
36185;SDS011;22228;53.222;7.446;2023-05-07T17:17:45;6.47;;;6.07;;
36185;SDS011;22228;53.222;7.446;2023-05-07T17:20:06;6.23;;;5.93;;
36185;SDS011;22228;53.222;7.446;2023-05-07T17:22:30;6.70;;;6.20;;
36185;SDS011;22228;53.222;7.446;2023-05-07T17:24:52;6.60;;;6.13;;
36185;SDS011;22228;53.222;7.446;2023-05-07T17:27:17;6.27;;;5.87;;
36185;SDS011;22228;53.222;7.446;2023-05-07T17:29:46;6.10;;;5.50;;
36185;SDS011;22228;53.222;7.446;2023-05-07T17:32:07;5.83;;;5.53;;
36185;SDS011;22228;53.222;7.446;2023-05-07T17:34:29;6.30;;;5.90;;
36185;SDS011;22228;53.222;7.446;2023-05-07T17:36:51;5.80;;;5.40;;
36185;SDS011;22228;53.222;7.446;2023-05-07T17:39:18;5.63;;;5.33;;
36185;SDS011;22228;53.222;7.446;2023-05-07T17:41:39;6.00;;;5.60;;
36185;SDS011;22228;53.222;7.446;2023-05-07T17:44:02;6.63;;;6.07;;
36185;SDS011;22228;53.222;7.446;2023-05-07T17:46:29;7.53;;;7.03;;
36185;SDS011;22228;53.222;7.446;2023-05-07T17:48:51;6.87;;;6.37;;
36185;SDS011;22228;53.222;7.446;2023-05-07T17:51:12;5.87;;;5.57;;
36185;SDS011;22228;53.222;7.446;2023-05-07T17:53:33;6.93;;;6.43;;
36185;SDS011;22228;53.222;7.446;2023-05-07T17:55:58;6.50;;;6.10;;
36185;SDS011;22228;53.222;7.446;2023-05-07T17:58:18;6.70;;;6.20;;
36185;SDS011;22228;53.222;7.446;2023-05-07T18:00:40;6.73;;;6.23;;
36185;SDS011;22228;53.222;7.446;2023-05-07T18:03:06;6.30;;;5.80;;
36185;SDS011;22228;53.222;7.446;2023-05-07T18:05:28;6.53;;;6.10;;
36185;SDS011;22228;53.222;7.446;2023-05-07T18:08:15;6.33;;;5.93;;
36185;SDS011;22228;53.222;7.446;2023-05-07T18:10:36;6.30;;;5.90;;
36185;SDS011;22228;53.222;7.446;2023-05-07T18:13:03;7.13;;;6.73;;
36185;SDS011;22228;53.222;7.446;2023-05-07T18:15:24;5.97;;;5.57;;
36185;SDS011;22228;53.222;7.446;2023-05-07T18:17:44;6.50;;;6.10;;
36185;SDS011;22228;53.222;7.446;2023-05-07T18:20:07;7.00;;;6.50;;
36185;SDS011;22228;53.222;7.446;2023-05-07T18:22:30;7.90;;;7.07;;
36185;SDS011;22228;53.222;7.446;2023-05-07T18:24:53;7.30;;;6.70;;
36185;SDS011;22228;53.222;7.446;2023-05-07T18:27:16;6.47;;;6.07;;
36185;SDS011;22228;53.222;7.446;2023-05-07T18:29:38;6.10;;;5.80;;
36185;SDS011;22228;53.222;7.446;2023-05-07T18:31:59;6.07;;;5.73;;
36185;SDS011;22228;53.222;7.446;2023-05-07T18:37:34;6.47;;;6.07;;
36185;SDS011;22228;53.222;7.446;2023-05-07T18:39:54;6.53;;;6.13;;
36185;SDS011;22228;53.222;7.446;2023-05-07T18:42:14;5.83;;;5.53;;
36185;SDS011;22228;53.222;7.446;2023-05-07T18:44:36;6.83;;;6.43;;